Rivas, Nicaragua

12:47 PM CST on February 07, 2016 (GMT -0600)
Rivas | | Change Station
CLOSE
Current Station
Airport
Location: Rivas,
Elevation: 174 ft
Nearby Weather Stations

Elev 174 ft 11.43 °N, 85.84 °W | Updated 47 minutes ago

Partly Cloudy
Partly Cloudy
86 °F
Feels Like 90 °F
N
14
Wind Variable Wind from SE

Today
High -- | Low -- °F
--% Chance of Precip.
Yesterday
High -- | Low -- °F
Precip. -- in
Pressure 29.86 in
Visibility 6.2 miles
Clouds Few 1800 ft
Heat Index 90 °F
Dew Point 70 °F
Humidity 58%
Rainfall 0.00 in
Snow Depth Not available.
6:06 AM 5:48 PM
Waning Crescent, 1% visible
METAR MNRS 071800Z 14012KT 9999 FEW018 30/21 Q1011
Pressure 29.86 in
Visibility 6.2 miles
Clouds Few 1800 ft
Heat Index 90 °F
Dew Point 70 °F
Humidity 58%
Rainfall 0.00 in
Snow Depth Not available.
6:06 AM 5:48 PM
Waning Crescent, 1% visible
METAR MNRS 071800Z 14012KT 9999 FEW018 30/21 Q1011

10-Day Weather Forecast

No radar image for this location.
×

Almanac

Astronomy

Feb. 07, 2016 Rise Set
Actual Time
Civil Twilight
Nautical Twilight
Astronomical Twilight
Moon
Length of Visible Light
Length of Day
Tomorrow will be .
, % of the Moon is Illuminated

Today's Extremes

Country Highs Country Lows

Community

WunderPhotos

Upload Photos

1,891,280 photos uploaded!

WunderBlog® & News

Nearby

Air Quality

  Air Quality AQ Index Pollutant
Not available.

Snow Depth

Station Depth Elevation

Earthquake Activity

City Distance Mag. Time & Date
Minimum magnitude displayed is 2.5.

Coastal Water Temperatures

Place Temperature

Stations

Nearby Weather Stations

Station Location Temp. Windchill Dew Point Humidity Wind Precip. Elev Updated Type